createdAt,value
2024-01-22T00:00:56.742Z,19.15
2024-01-22T00:02:06.131Z,19.15
2024-01-22T00:02:56.762Z,19.14
2024-01-22T00:03:56.701Z,19.14
2024-01-22T00:04:56.721Z,19.14
2024-01-22T00:05:56.818Z,19.13
2024-01-22T00:07:01.172Z,19.15
2024-01-22T00:07:56.710Z,19.14
2024-01-22T00:08:56.719Z,19.14
2024-01-22T00:09:56.707Z,19.14
2024-01-22T00:10:56.732Z,19.14
2024-01-22T00:12:01.174Z,19.14
2024-01-22T00:12:56.707Z,19.15
2024-01-22T00:13:56.701Z,19.14
2024-01-22T00:14:56.743Z,19.15
2024-01-22T00:15:56.711Z,19.15
2024-01-22T00:16:56.729Z,19.15
2024-01-22T00:17:56.812Z,19.15
2024-01-22T00:18:56.870Z,19.15
2024-01-22T00:19:56.739Z,19.15
2024-01-22T00:20:56.767Z,19.16
2024-01-22T00:21:56.724Z,19.16
2024-01-22T00:22:56.729Z,19.16
2024-01-22T00:23:56.755Z,19.15
2024-01-22T00:24:56.748Z,19.15
2024-01-22T00:25:56.729Z,19.15
2024-01-22T00:26:56.829Z,19.15
2024-01-22T00:27:56.799Z,19.16
2024-01-22T00:28:56.868Z,19.15
2024-01-22T00:29:56.987Z,19.16
2024-01-22T00:30:57.017Z,19.15
2024-01-22T00:31:57.072Z,19.15
2024-01-22T00:32:57.374Z,19.16
2024-01-22T00:33:57.301Z,19.15
2024-01-22T00:34:57.366Z,19.16
2024-01-22T00:35:57.382Z,19.15
2024-01-22T00:36:57.410Z,19.15
2024-01-22T00:37:57.457Z,19.15
2024-01-22T00:38:57.547Z,19.15
2024-01-22T00:39:57.560Z,19.15
2024-01-22T00:40:57.606Z,19.14
2024-01-22T00:41:57.679Z,19.15
2024-01-22T00:42:57.690Z,19.15
2024-01-22T00:43:57.742Z,19.14
2024-01-22T00:44:57.864Z,19.14
2024-01-22T00:45:57.834Z,19.15
2024-01-22T00:46:57.887Z,19.14
2024-01-22T00:47:57.996Z,19.14
2024-01-22T00:48:58.136Z,19.13
2024-01-22T00:49:58.015Z,19.13
2024-01-22T00:50:58.152Z,19.13
2024-01-22T00:51:58.156Z,19.14
2024-01-22T00:52:58.240Z,19.14
2024-01-22T00:53:58.363Z,19.14
2024-01-22T00:54:58.358Z,19.13
2024-01-22T00:55:58.428Z,19.14
2024-01-22T00:56:58.544Z,19.13
2024-01-22T00:57:58.560Z,19.12
2024-01-22T00:58:58.622Z,19.13
2024-01-22T00:59:58.720Z,19.12
2024-01-22T01:00:58.737Z,19.12
2024-01-22T01:01:58.768Z,19.12
2024-01-22T01:02:58.914Z,19.13
2024-01-22T01:03:58.910Z,19.12
2024-01-22T01:04:59.050Z,19.13
2024-01-22T01:05:59.000Z,19.13
2024-01-22T01:06:59.016Z,19.13
2024-01-22T01:07:59.056Z,19.12
2024-01-22T01:08:59.160Z,19.12
2024-01-22T01:09:59.172Z,19.13
2024-01-22T01:10:59.272Z,19.12
2024-01-22T01:11:59.378Z,19.12
2024-01-22T01:12:59.403Z,19.12
2024-01-22T01:13:59.479Z,19.12
2024-01-22T01:14:59.567Z,19.11
2024-01-22T01:15:59.596Z,19.12
2024-01-22T01:16:59.690Z,19.11
2024-01-22T01:17:59.890Z,19.12
2024-01-22T01:18:59.938Z,19.11
2024-01-22T01:19:59.898Z,19.12
2024-01-22T01:20:59.994Z,19.11
2024-01-22T01:22:00.038Z,19.12
2024-01-22T01:23:00.137Z,19.11
2024-01-22T01:24:00.309Z,19.11
2024-01-22T01:25:00.273Z,19.11
2024-01-22T01:26:00.317Z,19.11
2024-01-22T01:27:00.429Z,19.12
2024-01-22T01:28:00.524Z,19.11
2024-01-22T01:29:00.528Z,19.12
2024-01-22T01:30:00.697Z,19.12
2024-01-22T01:31:00.662Z,19.10
2024-01-22T01:32:00.724Z,19.11
2024-01-22T01:33:00.928Z,19.10
2024-01-22T01:34:00.959Z,19.11
2024-01-22T01:35:00.934Z,19.12
2024-01-22T01:36:01.067Z,19.11
2024-01-22T01:37:01.070Z,19.11
2024-01-22T01:38:01.133Z,19.11
2024-01-22T01:39:01.232Z,19.12
2024-01-22T01:40:01.306Z,19.12
2024-01-22T01:41:01.358Z,19.12
2024-01-22T01:42:01.462Z,19.12
2024-01-22T01:43:01.494Z,19.11
2024-01-22T01:44:01.535Z,19.11
2024-01-22T01:45:01.659Z,19.11
2024-01-22T01:46:01.642Z,19.11
2024-01-22T01:47:01.693Z,19.10
2024-01-22T01:48:01.876Z,19.11
2024-01-22T01:49:01.991Z,19.11
2024-01-22T01:50:01.865Z,19.10
2024-01-22T01:51:02.025Z,19.10
2024-01-22T01:52:01.993Z,19.10
2024-01-22T01:53:02.063Z,19.10
2024-01-22T01:54:02.159Z,19.10
2024-01-22T01:55:02.189Z,19.10
2024-01-22T01:56:02.283Z,19.11
2024-01-22T01:57:02.389Z,19.11
2024-01-22T01:58:05.837Z,19.11
2024-01-22T01:59:02.415Z,19.10
2024-01-22T02:00:02.642Z,19.11
2024-01-22T02:01:02.555Z,19.11
2024-01-22T02:02:02.422Z,19.10
2024-01-22T02:03:02.534Z,19.10
2024-01-22T02:04:02.475Z,19.11
2024-01-22T02:05:02.461Z,19.11
2024-01-22T02:06:02.511Z,19.11
2024-01-22T02:07:02.425Z,19.11
2024-01-22T02:08:02.419Z,19.11
2024-01-22T02:09:02.461Z,19.12
2024-01-22T02:10:02.427Z,19.10
2024-01-22T02:11:02.448Z,19.11
2024-01-22T02:12:02.472Z,19.11
2024-01-22T02:13:02.442Z,19.12
2024-01-22T02:14:02.435Z,19.11
2024-01-22T02:15:02.472Z,19.11
2024-01-22T02:16:02.434Z,19.12
2024-01-22T02:17:02.449Z,19.11
2024-01-22T02:18:02.606Z,19.12
2024-01-22T02:19:02.558Z,19.12
2024-01-22T02:20:02.470Z,19.11
2024-01-22T02:21:02.593Z,19.12
2024-01-22T02:22:02.668Z,19.12
2024-01-22T02:23:02.661Z,19.12
2024-01-22T02:24:02.791Z,19.12
2024-01-22T02:25:02.823Z,19.12
2024-01-22T02:26:02.878Z,19.13
2024-01-22T02:27:03.007Z,19.13
2024-01-22T02:28:03.257Z,19.13
2024-01-22T02:29:03.091Z,19.13
2024-01-22T02:30:03.225Z,19.13
2024-01-22T02:31:03.215Z,19.13
2024-01-22T02:32:03.302Z,19.13
2024-01-22T02:33:03.500Z,19.13
2024-01-22T02:34:03.589Z,19.12
2024-01-22T02:35:03.501Z,19.12
2024-01-22T02:36:04.228Z,19.12
2024-01-22T02:37:08.182Z,19.12
2024-01-22T02:38:03.641Z,19.12
2024-01-22T02:39:03.650Z,19.12
2024-01-22T02:40:03.649Z,19.13
2024-01-22T02:41:03.638Z,19.12
2024-01-22T02:42:03.640Z,19.11
2024-01-22T02:43:03.648Z,19.12
2024-01-22T02:44:03.658Z,19.12
2024-01-22T02:45:03.706Z,19.13
2024-01-22T02:46:03.661Z,19.13
2024-01-22T02:47:03.664Z,19.13
2024-01-22T02:48:03.849Z,19.12
2024-01-22T02:49:03.780Z,19.13
2024-01-22T02:50:03.719Z,19.12
2024-01-22T02:51:03.746Z,19.12
2024-01-22T02:52:03.673Z,19.12
2024-01-22T02:53:03.712Z,19.12
2024-01-22T02:54:03.787Z,19.11
2024-01-22T02:55:03.843Z,19.12
2024-01-22T02:56:03.910Z,19.12
2024-01-22T02:57:14.084Z,19.13
2024-01-22T02:58:04.002Z,19.11
2024-01-22T02:59:03.974Z,19.12
2024-01-22T03:00:04.102Z,19.12
2024-01-22T03:01:04.080Z,19.12
2024-01-22T03:02:04.028Z,19.12
2024-01-22T03:03:04.009Z,19.12
2024-01-22T03:04:04.068Z,19.12
2024-01-22T03:05:03.984Z,19.12
2024-01-22T03:06:04.064Z,19.11
2024-01-22T03:07:04.059Z,19.12
2024-01-22T03:08:04.016Z,19.12
2024-01-22T03:09:04.082Z,19.13
2024-01-22T03:10:04.019Z,19.13
2024-01-22T03:11:04.001Z,19.12
2024-01-22T03:12:04.028Z,19.12
2024-01-22T03:13:04.005Z,19.12
2024-01-22T03:14:04.005Z,19.12
2024-01-22T03:15:04.083Z,19.12
2024-01-22T03:16:04.020Z,19.13
2024-01-22T03:17:04.012Z,19.13
2024-01-22T03:18:04.443Z,19.13
2024-01-22T03:19:04.324Z,19.13
2024-01-22T03:20:04.150Z,19.12
2024-01-22T03:21:04.240Z,19.13
2024-01-22T03:22:04.254Z,19.12
2024-01-22T03:23:04.302Z,19.13
2024-01-22T03:24:04.412Z,19.13
2024-01-22T03:25:04.430Z,19.13
2024-01-22T03:26:04.501Z,19.12
2024-01-22T03:27:04.588Z,19.12
2024-01-22T03:28:04.652Z,19.13
2024-01-22T03:29:04.712Z,19.13
2024-01-22T03:30:04.871Z,19.13
2024-01-22T03:31:04.857Z,19.13
2024-01-22T03:32:04.952Z,19.13
2024-01-22T03:33:05.079Z,19.12
2024-01-22T03:34:05.138Z,19.12
2024-01-22T03:35:05.162Z,19.12
2024-01-22T03:36:05.314Z,19.12
2024-01-22T03:37:05.271Z,19.12
2024-01-22T03:38:05.328Z,19.11
2024-01-22T03:39:05.396Z,19.12
2024-01-22T03:40:05.444Z,19.12
2024-01-22T03:41:05.509Z,19.12
2024-01-22T03:42:05.655Z,19.13
2024-01-22T03:43:05.667Z,19.13
2024-01-22T03:44:05.738Z,19.13
2024-01-22T03:45:05.803Z,19.13
2024-01-22T03:46:05.820Z,19.13
2024-01-22T03:47:05.868Z,19.12
2024-01-22T03:48:06.045Z,19.12
2024-01-22T03:49:06.188Z,19.13
2024-01-22T03:50:06.151Z,19.13
2024-01-22T03:51:06.193Z,19.13
2024-01-22T03:52:06.232Z,19.13
2024-01-22T03:53:06.295Z,19.13
2024-01-22T03:54:06.370Z,19.13
2024-01-22T03:55:06.459Z,19.13
2024-01-22T03:56:06.935Z,19.13
2024-01-22T03:57:06.545Z,19.12
2024-01-22T03:58:06.602Z,19.13
2024-01-22T03:59:06.683Z,19.13
2024-01-22T04:00:06.759Z,19.13
2024-01-22T04:01:06.857Z,19.14
2024-01-22T04:02:06.851Z,19.13
2024-01-22T04:03:06.978Z,19.13
2024-01-22T04:04:06.999Z,19.13
2024-01-22T04:05:06.976Z,19.13
2024-01-22T04:06:07.081Z,19.13
2024-01-22T04:07:07.254Z,19.13
2024-01-22T04:08:07.137Z,19.12
2024-01-22T04:09:07.241Z,19.12
2024-01-22T04:10:07.296Z,19.13
2024-01-22T04:11:07.338Z,19.12
2024-01-22T04:12:07.447Z,19.12
2024-01-22T04:13:07.485Z,19.13
2024-01-22T04:14:07.571Z,19.13
2024-01-22T04:15:07.708Z,19.12
2024-01-22T04:16:07.707Z,19.11
2024-01-22T04:17:07.786Z,19.11
2024-01-22T04:18:07.946Z,19.11
2024-01-22T04:19:07.980Z,19.12
2024-01-22T04:20:08.080Z,19.12
2024-01-22T04:21:08.108Z,19.12
2024-01-22T04:22:08.158Z,19.11
2024-01-22T04:23:08.212Z,19.12
2024-01-22T04:24:08.322Z,19.11
2024-01-22T04:25:08.347Z,19.11
2024-01-22T04:26:08.425Z,19.12
2024-01-22T04:27:08.613Z,19.11
2024-01-22T04:28:08.570Z,19.12
2024-01-22T04:29:08.620Z,19.11
2024-01-22T04:30:08.739Z,19.11
2024-01-22T04:31:08.736Z,19.11
2024-01-22T04:32:08.960Z,19.11
2024-01-22T04:33:08.988Z,19.11
2024-01-22T04:34:09.047Z,19.12
2024-01-22T04:35:09.027Z,19.11
2024-01-22T04:36:09.219Z,19.11
2024-01-22T04:37:09.111Z,19.12
2024-01-22T04:38:09.159Z,19.12
2024-01-22T04:39:09.240Z,19.12
2024-01-22T04:40:09.269Z,19.11
2024-01-22T04:41:09.322Z,19.11
2024-01-22T04:42:09.434Z,19.12
2024-01-22T04:43:09.463Z,19.10
2024-01-22T04:44:09.535Z,19.11
2024-01-22T04:45:09.641Z,19.11
2024-01-22T04:46:09.680Z,19.12
2024-01-22T04:47:09.731Z,19.12
2024-01-22T04:48:09.929Z,19.12
2024-01-22T04:49:09.991Z,19.12
2024-01-22T04:50:09.949Z,19.12
2024-01-22T04:51:10.013Z,19.11
2024-01-22T04:52:10.034Z,19.11
2024-01-22T04:53:10.112Z,19.11
2024-01-22T04:54:10.246Z,19.11
2024-01-22T04:55:21.826Z,19.08
2024-01-22T04:56:18.533Z,19.09
2024-01-22T04:57:17.615Z,19.10
2024-01-22T04:58:17.537Z,19.10
2024-01-22T04:59:17.532Z,19.11
2024-01-22T05:00:17.622Z,19.11
2024-01-22T05:01:17.551Z,19.11
2024-01-22T05:02:17.544Z,19.12
2024-01-22T05:03:17.614Z,19.12
2024-01-22T05:04:17.631Z,19.12
2024-01-22T05:05:17.664Z,19.12
2024-01-22T05:06:17.815Z,19.12
2024-01-22T05:07:17.744Z,19.12
2024-01-22T05:08:17.825Z,19.12
2024-01-22T05:09:17.935Z,19.12
2024-01-22T05:10:17.971Z,19.11
2024-01-22T05:11:18.048Z,19.12
2024-01-22T05:12:18.144Z,19.12
2024-01-22T05:13:18.139Z,19.11
2024-01-22T05:14:18.208Z,19.11
2024-01-22T05:15:18.344Z,19.11
2024-01-22T05:16:18.318Z,19.11
2024-01-22T05:17:18.335Z,19.11
2024-01-22T05:18:20.977Z,19.10
2024-01-22T05:19:18.519Z,19.10
2024-01-22T05:20:18.480Z,19.11
2024-01-22T05:21:18.502Z,19.10
2024-01-22T05:22:18.455Z,19.09
2024-01-22T05:23:18.407Z,19.09
2024-01-22T05:24:18.622Z,19.09
2024-01-22T05:25:18.528Z,19.08
2024-01-22T05:26:18.433Z,19.07
2024-01-22T05:27:18.519Z,19.08
2024-01-22T05:28:18.400Z,19.07
2024-01-22T05:29:18.448Z,19.06
2024-01-22T05:30:18.498Z,19.05
2024-01-22T05:31:18.460Z,19.05
2024-01-22T05:32:18.494Z,19.06
2024-01-22T05:33:18.508Z,19.05
2024-01-22T05:34:18.645Z,19.04
2024-01-22T05:35:18.478Z,19.04
2024-01-22T05:36:18.524Z,19.04
2024-01-22T05:37:18.476Z,19.04
2024-01-22T05:38:18.420Z,19.04
2024-01-22T05:39:18.608Z,19.03
2024-01-22T05:40:18.480Z,19.03
2024-01-22T05:41:18.516Z,19.03
2024-01-22T05:42:18.560Z,19.02
2024-01-22T05:43:18.545Z,19.02
2024-01-22T05:44:18.491Z,19.01
2024-01-22T05:45:18.642Z,19.01
2024-01-22T05:46:18.486Z,19.00
2024-01-22T05:47:18.474Z,19.00
2024-01-22T05:48:18.715Z,19.00
2024-01-22T05:49:18.792Z,19.00
2024-01-22T05:50:18.477Z,19.00
2024-01-22T05:51:18.582Z,18.99
2024-01-22T05:52:18.471Z,18.99
2024-01-22T05:53:18.448Z,18.99
2024-01-22T05:54:18.486Z,19.00
2024-01-22T05:55:19.841Z,19.00
2024-01-22T05:56:18.551Z,19.00
2024-01-22T05:57:18.491Z,18.98
2024-01-22T05:58:18.576Z,18.98
2024-01-22T05:59:18.484Z,18.99
2024-01-22T06:00:18.540Z,18.98
2024-01-22T06:01:18.868Z,18.98
2024-01-22T06:02:18.532Z,18.98
2024-01-22T06:03:18.566Z,18.99
2024-01-22T06:04:18.591Z,18.98
2024-01-22T06:05:18.545Z,18.99
2024-01-22T06:06:18.584Z,18.99
2024-01-22T06:07:18.542Z,19.00
2024-01-22T06:08:18.480Z,19.01
2024-01-22T06:09:18.589Z,19.03
2024-01-22T06:10:18.762Z,19.03
2024-01-22T06:11:18.567Z,19.04
2024-01-22T06:12:18.655Z,19.04
2024-01-22T06:13:18.544Z,19.05
2024-01-22T06:14:18.551Z,19.06
2024-01-22T06:15:18.659Z,19.07
2024-01-22T06:16:18.558Z,19.07
2024-01-22T06:17:18.525Z,19.07
2024-01-22T06:18:18.648Z,19.08
2024-01-22T06:19:18.594Z,19.09
2024-01-22T06:20:18.573Z,19.09
2024-01-22T06:21:18.638Z,19.09
2024-01-22T06:22:18.627Z,19.09
2024-01-22T06:23:18.585Z,19.10
2024-01-22T06:24:18.960Z,19.11
2024-01-22T06:25:18.669Z,19.11
2024-01-22T06:26:19.224Z,19.11
2024-01-22T06:27:18.853Z,19.11
2024-01-22T06:28:18.863Z,19.11
2024-01-22T06:29:18.902Z,19.11
2024-01-22T06:30:19.047Z,19.11
2024-01-22T06:31:19.002Z,19.11
2024-01-22T06:32:19.052Z,19.10
2024-01-22T06:33:19.208Z,19.10
2024-01-22T06:34:19.457Z,19.09
2024-01-22T06:35:19.120Z,19.09
2024-01-22T06:36:19.234Z,19.07
2024-01-22T06:37:19.220Z,19.07
2024-01-22T06:38:19.255Z,19.07
2024-01-22T06:39:19.395Z,19.06
2024-01-22T06:40:19.407Z,19.06
2024-01-22T06:41:19.395Z,19.05
2024-01-22T06:42:27.480Z,19.05
2024-01-22T06:43:20.490Z,19.04
2024-01-22T06:44:19.482Z,19.03
2024-01-22T06:45:19.564Z,19.02
2024-01-22T06:46:19.504Z,19.02
2024-01-22T06:47:19.480Z,19.02
2024-01-22T06:48:19.592Z,19.00
2024-01-22T06:49:19.678Z,19.01
2024-01-22T06:50:19.546Z,19.01
2024-01-22T06:51:27.149Z,19.00
2024-01-22T06:52:20.504Z,18.99
2024-01-22T06:53:19.484Z,19.00
2024-01-22T06:54:20.884Z,19.00
2024-01-22T06:55:19.488Z,18.99
2024-01-22T06:56:19.507Z,18.98
2024-01-22T06:57:19.542Z,18.99
2024-01-22T06:58:19.486Z,18.98
2024-01-22T06:59:19.485Z,18.98
2024-01-22T07:00:19.532Z,18.97
2024-01-22T07:01:19.528Z,18.97
2024-01-22T07:02:19.499Z,18.96
2024-01-22T07:03:19.594Z,18.98
2024-01-22T07:04:19.693Z,19.05
2024-01-22T07:05:19.557Z,19.12
2024-01-22T07:06:22.349Z,19.20
2024-01-22T07:07:19.505Z,19.26
2024-01-22T07:08:19.520Z,19.33
2024-01-22T07:09:19.576Z,19.40
2024-01-22T07:10:19.522Z,19.46
2024-01-22T07:11:19.505Z,19.55
2024-01-22T07:12:19.594Z,19.60
2024-01-22T07:13:19.521Z,19.64
2024-01-22T07:14:19.542Z,19.72
2024-01-22T07:15:19.605Z,19.79
2024-01-22T07:16:19.589Z,19.84
2024-01-22T07:17:19.553Z,19.89
2024-01-22T07:18:19.709Z,19.91
2024-01-22T07:19:19.610Z,19.96
2024-01-22T07:20:19.534Z,20.00
2024-01-22T07:21:19.659Z,20.04
2024-01-22T07:22:19.667Z,20.07
2024-01-22T07:23:19.746Z,20.09
2024-01-22T07:24:19.762Z,20.12
2024-01-22T07:25:19.702Z,20.15
2024-01-22T07:26:19.556Z,20.18
2024-01-22T07:27:19.619Z,20.21
2024-01-22T07:28:19.567Z,20.21
2024-01-22T07:29:19.593Z,20.23
2024-01-22T07:30:19.624Z,20.24
2024-01-22T07:31:19.585Z,20.26
2024-01-22T07:32:19.672Z,20.27
2024-01-22T07:33:19.819Z,20.31
2024-01-22T07:34:21.314Z,20.33
2024-01-22T07:35:19.832Z,20.34
2024-01-22T07:36:19.933Z,20.34
2024-01-22T07:37:19.962Z,20.34
2024-01-22T07:38:20.027Z,20.36
2024-01-22T07:39:20.188Z,20.37
2024-01-22T07:40:20.193Z,20.39
2024-01-22T07:41:20.252Z,20.42
2024-01-22T07:42:20.389Z,20.47
2024-01-22T07:43:20.386Z,20.51
2024-01-22T07:44:20.461Z,20.53
2024-01-22T07:45:20.524Z,20.56
2024-01-22T07:46:20.537Z,20.59
2024-01-22T07:47:23.204Z,20.60
2024-01-22T07:48:20.690Z,20.61
2024-01-22T07:49:20.631Z,20.62
2024-01-22T07:50:20.588Z,20.64
2024-01-22T07:51:20.658Z,20.65
2024-01-22T07:52:20.591Z,20.67
2024-01-22T07:53:20.627Z,20.63
2024-01-22T07:54:20.648Z,20.59
2024-01-22T07:55:20.614Z,20.54
2024-01-22T07:56:20.611Z,20.51
2024-01-22T07:57:20.762Z,20.48
2024-01-22T07:58:20.816Z,20.47
2024-01-22T07:59:20.629Z,20.52
2024-01-22T08:00:20.722Z,20.55
2024-01-22T08:01:20.686Z,20.60
2024-01-22T08:02:20.633Z,20.66
2024-01-22T08:03:20.679Z,20.69
2024-01-22T08:04:20.678Z,20.73
2024-01-22T08:05:20.634Z,20.78
2024-01-22T08:06:20.664Z,20.79
2024-01-22T08:07:21.208Z,20.83
2024-01-22T08:08:20.626Z,20.87
2024-01-22T08:09:20.735Z,20.90
2024-01-22T08:10:20.631Z,20.93
2024-01-22T08:11:20.631Z,20.97
2024-01-22T08:12:20.722Z,21.01
2024-01-22T08:13:20.646Z,21.04
2024-01-22T08:14:20.624Z,21.07
2024-01-22T08:15:20.662Z,21.10
2024-01-22T08:16:20.630Z,21.14
2024-01-22T08:17:20.651Z,21.16
2024-01-22T08:18:20.836Z,21.17
2024-01-22T08:19:20.772Z,21.18
2024-01-22T08:20:20.681Z,21.20
2024-01-22T08:21:20.713Z,21.21
2024-01-22T08:22:20.644Z,21.23
2024-01-22T08:23:20.666Z,21.24
2024-01-22T08:24:20.802Z,21.25
2024-01-22T08:25:21.115Z,21.27
2024-01-22T08:26:20.652Z,21.27
2024-01-22T08:27:20.725Z,21.27
2024-01-22T08:28:20.659Z,21.26
2024-01-22T08:29:20.664Z,21.28
2024-01-22T08:30:20.727Z,21.28
2024-01-22T08:31:20.690Z,21.30
2024-01-22T08:32:20.676Z,21.28
2024-01-22T08:33:20.900Z,21.27
2024-01-22T08:34:20.825Z,21.29
2024-01-22T08:35:21.041Z,21.28
2024-01-22T08:36:20.730Z,21.28
2024-01-22T08:37:20.776Z,21.25
2024-01-22T08:38:20.760Z,21.20
2024-01-22T08:39:20.727Z,21.15
2024-01-22T08:40:20.686Z,21.11
2024-01-22T08:41:20.691Z,21.05
2024-01-22T08:42:20.802Z,21.00
2024-01-22T08:43:20.693Z,20.95
2024-01-22T08:44:20.691Z,20.90
2024-01-22T08:45:20.742Z,20.87
2024-01-22T08:46:20.709Z,20.83
2024-01-22T08:47:20.700Z,20.79
2024-01-22T08:48:20.788Z,20.76
2024-01-22T08:49:20.718Z,20.73
2024-01-22T08:50:20.701Z,20.69
2024-01-22T08:51:20.805Z,20.67
2024-01-22T08:52:20.715Z,20.64
2024-01-22T08:53:20.762Z,20.62
2024-01-22T08:54:20.941Z,20.59
2024-01-22T08:55:20.868Z,20.56
2024-01-22T08:56:20.933Z,20.54
2024-01-22T08:57:21.119Z,20.52
2024-01-22T08:58:21.037Z,20.50
2024-01-22T08:59:21.101Z,20.48
2024-01-22T09:00:21.196Z,20.47
2024-01-22T09:01:21.334Z,20.45
2024-01-22T09:02:21.261Z,20.44
2024-01-22T09:03:21.325Z,20.42
2024-01-22T09:04:21.391Z,20.40
2024-01-22T09:05:21.488Z,20.39
2024-01-22T09:06:21.435Z,20.37
2024-01-22T09:07:21.407Z,20.36
2024-01-22T09:08:21.417Z,20.35
2024-01-22T09:09:21.545Z,20.34
2024-01-22T09:10:21.447Z,20.31
2024-01-22T09:11:21.475Z,20.31
2024-01-22T09:12:21.548Z,20.30
2024-01-22T09:13:22.188Z,20.29
2024-01-22T09:14:21.658Z,20.28
2024-01-22T09:15:21.949Z,20.27
2024-01-22T09:16:21.771Z,20.25
2024-01-22T09:17:21.862Z,20.25
2024-01-22T09:18:22.004Z,20.24
2024-01-22T09:19:22.061Z,20.23
2024-01-22T09:20:22.088Z,20.22
2024-01-22T09:21:22.180Z,20.21
2024-01-22T09:22:22.157Z,20.20
2024-01-22T09:23:22.197Z,20.19
2024-01-22T09:24:22.246Z,20.19
2024-01-22T09:25:22.217Z,20.18
2024-01-22T09:26:22.261Z,20.18
2024-01-22T09:27:22.362Z,20.18
2024-01-22T09:28:22.603Z,20.17
2024-01-22T09:29:22.420Z,20.17
2024-01-22T09:30:29.809Z,20.11
2024-01-22T09:31:29.744Z,20.14
2024-01-22T09:32:29.764Z,20.13
2024-01-22T09:33:29.847Z,20.14
2024-01-22T09:34:29.793Z,20.13
2024-01-22T09:35:29.727Z,20.13
2024-01-22T09:36:29.825Z,20.13
2024-01-22T09:37:29.729Z,20.12
2024-01-22T09:38:29.737Z,20.12
2024-01-22T09:39:29.726Z,20.11
2024-01-22T09:40:30.891Z,20.10
2024-01-22T09:41:29.726Z,20.10
2024-01-22T09:42:29.753Z,20.10
2024-01-22T09:43:29.759Z,20.10
2024-01-22T09:44:29.748Z,20.09
2024-01-22T09:45:29.813Z,20.09
2024-01-22T09:46:29.732Z,20.09
2024-01-22T09:47:29.767Z,20.08
2024-01-22T09:48:29.798Z,20.08
2024-01-22T09:49:29.901Z,20.08
2024-01-22T09:50:29.754Z,20.08
2024-01-22T09:51:29.781Z,20.08
2024-01-22T09:52:29.768Z,20.08
2024-01-22T09:53:29.767Z,20.07
2024-01-22T09:54:29.855Z,20.07
2024-01-22T09:55:29.749Z,20.07
2024-01-22T09:56:29.764Z,20.07
2024-01-22T09:57:29.798Z,20.07
2024-01-22T09:58:29.772Z,20.07
2024-01-22T09:59:29.783Z,20.06
2024-01-22T10:00:29.826Z,20.08
2024-01-22T10:01:29.909Z,20.09
2024-01-22T10:02:29.782Z,20.11
2024-01-22T10:03:29.863Z,20.15
2024-01-22T10:04:29.937Z,20.18
2024-01-22T10:05:29.779Z,20.19
2024-01-22T10:06:29.849Z,20.20
2024-01-22T10:07:29.771Z,20.23
2024-01-22T10:08:29.777Z,20.25
2024-01-22T10:09:29.804Z,20.26
2024-01-22T10:10:29.780Z,20.28
2024-01-22T10:11:29.821Z,20.30
2024-01-22T10:12:56.816Z,20.31
2024-01-22T10:13:29.787Z,20.28
2024-01-22T10:14:29.791Z,20.32
2024-01-22T10:15:29.935Z,20.34
2024-01-22T10:16:29.850Z,20.36
2024-01-22T10:17:29.800Z,20.38
2024-01-22T10:18:29.962Z,20.39
2024-01-22T10:19:29.908Z,20.40
2024-01-22T10:20:29.808Z,20.43
2024-01-22T10:21:29.888Z,20.43
2024-01-22T10:22:29.845Z,20.45
2024-01-22T10:23:29.795Z,20.47
2024-01-22T10:24:29.813Z,20.47
2024-01-22T10:25:29.828Z,20.48
2024-01-22T10:26:29.807Z,20.50
2024-01-22T10:27:29.892Z,20.51
2024-01-22T10:28:29.816Z,20.52
2024-01-22T10:29:29.817Z,20.53
2024-01-22T10:30:29.890Z,20.52
2024-01-22T10:31:29.881Z,20.53
2024-01-22T10:32:29.878Z,20.53
2024-01-22T10:33:29.927Z,20.54
2024-01-22T10:34:30.033Z,20.54
2024-01-22T10:35:29.844Z,20.56
2024-01-22T10:36:29.884Z,20.55
2024-01-22T10:37:29.823Z,20.56
2024-01-22T10:38:29.833Z,20.56
2024-01-22T10:39:29.868Z,20.55
2024-01-22T10:40:29.845Z,20.56
2024-01-22T10:41:29.841Z,20.58
2024-01-22T10:42:29.970Z,20.59
2024-01-22T10:43:31.474Z,20.62
2024-01-22T10:44:29.853Z,20.63
2024-01-22T10:45:29.897Z,20.63
2024-01-22T10:46:29.850Z,20.64
2024-01-22T10:47:29.936Z,20.64
2024-01-22T10:48:37.886Z,20.65
2024-01-22T10:49:31.029Z,20.65
2024-01-22T10:50:29.951Z,20.66
2024-01-22T10:51:29.878Z,20.65
2024-01-22T10:52:29.860Z,20.64
2024-01-22T10:53:29.871Z,20.64
2024-01-22T10:54:29.999Z,20.63
2024-01-22T10:55:29.852Z,20.63
2024-01-22T10:56:29.871Z,20.63
2024-01-22T10:57:29.858Z,20.64
2024-01-22T10:58:29.942Z,20.63
2024-01-22T10:59:30.010Z,20.62
2024-01-22T11:00:30.094Z,20.62
2024-01-22T11:01:30.130Z,20.61
2024-01-22T11:02:30.197Z,20.61
2024-01-22T11:03:30.391Z,20.60
2024-01-22T11:04:30.407Z,20.59
2024-01-22T11:05:30.357Z,20.59
2024-01-22T11:06:30.481Z,20.59
2024-01-22T11:07:30.444Z,20.59
2024-01-22T11:08:30.512Z,20.58
2024-01-22T11:09:30.611Z,20.58
2024-01-22T11:10:57.654Z,20.59
2024-01-22T11:11:30.806Z,20.54
2024-01-22T11:12:30.650Z,20.56
2024-01-22T11:13:30.653Z,20.57
2024-01-22T11:14:30.650Z,20.58
2024-01-22T11:15:30.641Z,20.58
2024-01-22T11:16:30.663Z,20.59
2024-01-22T11:17:30.674Z,20.58
2024-01-22T11:18:30.753Z,20.58
2024-01-22T11:19:30.694Z,20.57
2024-01-22T11:20:30.682Z,20.57
2024-01-22T11:21:30.671Z,20.56
2024-01-22T11:22:30.683Z,20.57
2024-01-22T11:23:30.678Z,20.56
2024-01-22T11:24:30.717Z,20.55
2024-01-22T11:25:30.705Z,20.56
2024-01-22T11:26:30.676Z,20.55
2024-01-22T11:27:30.692Z,20.55
2024-01-22T11:28:30.692Z,20.55
2024-01-22T11:29:30.818Z,20.56
2024-01-22T11:30:30.697Z,20.55
2024-01-22T11:31:30.677Z,20.55
2024-01-22T11:32:30.714Z,20.54
2024-01-22T11:33:30.744Z,20.54
2024-01-22T11:34:30.698Z,20.55
2024-01-22T11:35:30.674Z,20.56
2024-01-22T11:36:30.677Z,20.55
2024-01-22T11:37:30.673Z,20.58
2024-01-22T11:38:30.686Z,20.57
2024-01-22T11:39:30.691Z,20.57
2024-01-22T11:40:30.680Z,20.57
2024-01-22T11:41:30.699Z,20.56
2024-01-22T11:42:30.764Z,20.55
2024-01-22T11:43:30.682Z,20.54
2024-01-22T11:44:30.690Z,20.53
2024-01-22T11:45:36.619Z,20.53
2024-01-22T11:46:31.732Z,20.52
2024-01-22T11:47:30.727Z,20.52
2024-01-22T11:48:30.831Z,20.50
2024-01-22T11:49:30.779Z,20.50
2024-01-22T11:50:30.692Z,20.49
2024-01-22T11:51:30.823Z,20.48
2024-01-22T11:52:30.728Z,20.48
2024-01-22T11:53:30.714Z,20.47
2024-01-22T11:54:30.725Z,20.47
2024-01-22T11:55:30.692Z,20.46
2024-01-22T11:56:30.713Z,20.46
2024-01-22T11:57:30.761Z,20.46
2024-01-22T11:58:30.715Z,20.44
2024-01-22T11:59:30.704Z,20.45
2024-01-22T12:00:30.803Z,20.45
2024-01-22T12:01:30.720Z,20.45
2024-01-22T12:02:30.760Z,20.44
2024-01-22T12:03:30.833Z,20.44
2024-01-22T12:04:30.777Z,20.44
2024-01-22T12:05:30.797Z,20.44
2024-01-22T12:06:30.986Z,20.43
2024-01-22T12:07:30.942Z,20.43
2024-01-22T12:08:30.986Z,20.43
2024-01-22T12:09:30.963Z,20.42
2024-01-22T12:10:30.993Z,20.42
2024-01-22T12:11:30.986Z,20.42
2024-01-22T12:12:31.006Z,20.42
2024-01-22T12:13:31.013Z,20.42
2024-01-22T12:14:31.073Z,20.41
2024-01-22T12:15:31.246Z,20.41
2024-01-22T12:16:31.115Z,20.40
2024-01-22T12:17:31.148Z,20.40
2024-01-22T12:18:31.218Z,20.40
2024-01-22T12:19:31.168Z,20.39
2024-01-22T12:20:31.237Z,20.39
2024-01-22T12:21:31.162Z,20.39
2024-01-22T12:22:31.191Z,20.39
2024-01-22T12:23:31.289Z,20.39
2024-01-22T12:24:31.296Z,20.39
2024-01-22T12:25:31.493Z,20.39
2024-01-22T12:26:31.298Z,20.39
2024-01-22T12:27:31.318Z,20.39
2024-01-22T12:28:31.280Z,20.40
2024-01-22T12:29:31.804Z,20.39
2024-01-22T12:30:31.353Z,20.39
2024-01-22T12:31:31.336Z,20.38
2024-01-22T12:32:31.363Z,20.37
2024-01-22T12:33:31.474Z,20.37
2024-01-22T12:34:31.396Z,20.37
2024-01-22T12:35:31.355Z,20.37
2024-01-22T12:36:33.346Z,20.37
2024-01-22T12:37:31.459Z,20.36
2024-01-22T12:38:31.418Z,20.35
2024-01-22T12:39:31.505Z,20.35
2024-01-22T12:40:31.490Z,20.35
2024-01-22T12:41:31.437Z,20.35
2024-01-22T12:42:31.518Z,20.35
2024-01-22T12:43:31.449Z,20.34
2024-01-22T12:44:31.430Z,20.34
2024-01-22T12:45:31.489Z,20.34
2024-01-22T12:46:31.434Z,20.35
2024-01-22T12:47:34.084Z,20.35
2024-01-22T12:48:31.559Z,20.34
2024-01-22T12:49:31.509Z,20.33
2024-01-22T12:50:31.476Z,20.34
2024-01-22T12:51:31.495Z,20.34
2024-01-22T12:52:31.464Z,20.34
2024-01-22T12:53:33.686Z,20.34